Time;durP1;ratioP1;P1;durP2;ratioP2;P2;SDS_P1;SDS_P2;PMS_P1;PMS_P2;Temp;Humidity;BMP_temperature;BMP_pressure;BME280_temperature;BME280_humidity;BME280_pressure;Samples;Min_cycle;Max_cycle;Signal;HPM_P1;HPM_P2
2024/01/14 00:01:04;;;;;;;10.53;5.77;;;;;;;2.22;100.00;100127.25;5032484;28;20223;-73
2024/01/14 00:03:32;;;;;;;11.17;5.97;;;;;;;2.22;100.00;100124.66;5033153;28;20215;-73
2024/01/14 00:05:58;;;;;;;8.13;5.40;;;;;;;2.21;100.00;100121.28;5032491;28;20219;-73
2024/01/14 00:08:24;;;;;;;10.73;5.13;;;;;;;2.22;100.00;100117.63;5032891;28;20203;-73
2024/01/14 00:10:51;;;;;;;8.00;5.40;;;;;;;2.20;100.00;100106.72;5034343;28;20228;-72
2024/01/14 00:13:17;;;;;;;9.60;5.03;;;;;;;2.18;100.00;100106.22;5031735;28;20223;-73
2024/01/14 00:15:45;;;;;;;8.33;5.23;;;;;;;2.18;100.00;100110.66;5034395;28;20208;-73
2024/01/14 00:18:11;;;;;;;8.37;4.87;;;;;;;2.16;100.00;100107.56;5034443;28;20206;-74
2024/01/14 00:20:37;;;;;;;9.83;5.60;;;;;;;2.11;100.00;100097.19;5034097;28;20251;-74
2024/01/14 00:23:04;;;;;;;9.03;5.47;;;;;;;2.09;100.00;100099.31;5033988;28;20567;-73
2024/01/14 00:25:31;;;;;;;8.60;5.07;;;;;;;2.07;100.00;100094.41;5035577;28;20226;-73
2024/01/14 00:27:57;;;;;;;8.40;4.87;;;;;;;2.04;100.00;100094.19;5029847;28;20314;-73
2024/01/14 00:30:24;;;;;;;12.77;6.10;;;;;;;1.99;100.00;100102.06;5047716;28;20218;-73
2024/01/14 00:32:51;;;;;;;7.83;5.20;;;;;;;1.97;100.00;100097.13;5027783;28;20211;-73
2024/01/14 00:35:18;;;;;;;11.83;6.00;;;;;;;1.93;100.00;100093.53;5031191;28;20199;-73
2024/01/14 00:37:44;;;;;;;8.93;5.87;;;;;;;1.90;100.00;100091.50;5036335;28;20212;-73
2024/01/14 00:40:11;;;;;;;9.73;5.80;;;;;;;1.89;100.00;100087.34;5033895;28;20199;-73
2024/01/14 00:42:37;;;;;;;10.93;6.70;;;;;;;1.86;100.00;100089.72;5036647;28;20249;-74
2024/01/14 00:45:04;;;;;;;8.70;5.83;;;;;;;1.86;100.00;100094.94;5030902;28;20223;-72
2024/01/14 00:47:31;;;;;;;9.53;5.87;;;;;;;1.83;100.00;100095.50;5027667;28;20203;-73
2024/01/14 00:49:58;;;;;;;10.10;6.07;;;;;;;1.80;100.00;100093.44;5028465;28;20212;-74
2024/01/14 00:52:25;;;;;;;12.57;6.97;;;;;;;1.76;100.00;100095.84;5032409;28;20739;-73
2024/01/14 00:54:51;;;;;;;10.17;6.70;;;;;;;1.75;100.00;100096.09;5036519;28;20238;-73
2024/01/14 00:57:19;;;;;;;12.40;7.10;;;;;;;1.71;100.00;100093.28;5037052;28;20214;-74
2024/01/14 00:59:45;;;;;;;10.17;6.30;;;;;;;1.70;100.00;100081.34;5034786;28;20206;-73
2024/01/14 01:02:12;;;;;;;11.83;6.17;;;;;;;1.72;100.00;100083.66;5039008;28;20223;-73
2024/01/14 01:04:38;;;;;;;11.27;6.30;;;;;;;1.67;100.00;100073.31;5034129;28;20233;-73
2024/01/14 01:07:06;;;;;;;10.03;6.03;;;;;;;1.67;100.00;100066.28;5035563;28;20201;-73
2024/01/14 01:09:32;;;;;;;8.60;6.07;;;;;;;1.65;100.00;100073.59;5036001;28;20199;-73
2024/01/14 01:11:58;;;;;;;9.53;6.27;;;;;;;1.64;100.00;100061.63;5031157;28;20706;-74
2024/01/14 01:14:25;;;;;;;9.43;5.67;;;;;;;1.64;100.00;100066.06;5036764;28;20207;-73
2024/01/14 01:16:51;;;;;;;10.70;6.40;;;;;;;1.64;100.00;100068.66;5034793;28;20187;-73
2024/01/14 01:19:17;;;;;;;8.10;5.27;;;;;;;1.64;100.00;100059.03;5034736;28;20245;-73
2024/01/14 01:21:44;;;;;;;8.77;6.00;;;;;;;1.65;100.00;100060.59;5036951;28;20227;-73
2024/01/14 01:24:14;;;;;;;12.27;6.67;;;;;;;1.65;100.00;100057.19;5033056;28;20214;-74
2024/01/14 01:26:40;;;;;;;11.23;6.43;;;;;;;1.64;100.00;100053.84;5037729;28;20594;-73
2024/01/14 01:29:07;;;;;;;10.00;6.07;;;;;;;1.65;100.00;100050.16;5038602;28;20214;-73
2024/01/14 01:31:33;;;;;;;9.70;5.80;;;;;;;1.65;100.00;100047.56;5035511;28;20223;-73
2024/01/14 01:34:00;;;;;;;9.57;6.27;;;;;;;1.65;100.00;100044.19;5034243;28;20562;-73
2024/01/14 01:36:26;;;;;;;10.83;6.87;;;;;;;1.66;100.00;100043.91;5035124;28;20245;-73
2024/01/14 01:38:53;;;;;;;10.43;5.60;;;;;;;1.66;100.00;100037.94;5034913;28;20212;-73
2024/01/14 01:41:22;;;;;;;9.87;6.30;;;;;;;1.67;100.00;100034.28;5038234;28;20234;-73
2024/01/14 01:43:48;;;;;;;10.40;6.23;;;;;;;1.66;100.00;100033.50;5037675;28;20551;-74
2024/01/14 01:46:15;;;;;;;9.93;5.77;;;;;;;1.67;100.00;100039.50;5035089;28;20729;-74
2024/01/14 01:48:42;;;;;;;9.83;6.43;;;;;;;1.67;100.00;100024.63;5036226;28;20211;-73
2024/01/14 01:51:09;;;;;;;8.57;5.10;;;;;;;1.69;100.00;100021.75;5034443;28;20231;-73
2024/01/14 01:53:36;;;;;;;11.93;6.03;;;;;;;1.68;100.00;100030.63;5033809;28;20668;-73
2024/01/14 01:56:03;;;;;;;10.67;6.70;;;;;;;1.68;100.00;100023.59;5037840;28;20203;-73
2024/01/14 01:58:31;;;;;;;9.63;6.07;;;;;;;1.69;100.00;100024.34;5034372;28;20207;-74
2024/01/14 02:00:57;;;;;;;7.43;5.10;;;;;;;1.67;100.00;100016.81;5034287;28;20242;-74
2024/01/14 02:03:25;;;;;;;9.50;5.73;;;;;;;1.68;100.00;100013.19;5030848;28;20211;-74
2024/01/14 02:05:55;;;;;;;8.53;5.33;;;;;;;1.68;100.00;100005.38;5033681;28;20621;-74
2024/01/14 02:08:21;;;;;;;8.87;5.63;;;;;;;1.68;100.00;100002.00;5035831;28;20609;-74
2024/01/14 02:10:48;;;;;;;8.80;5.60;;;;;;;1.70;100.00;100002.47;5031135;28;20242;-73
2024/01/14 02:13:14;;;;;;;9.60;5.43;;;;;;;1.68;100.00;99981.97;5034313;28;20229;-73
2024/01/14 02:15:43;;;;;;;8.87;5.23;;;;;;;1.70;100.00;100000.66;5031492;28;20199;-73
2024/01/14 02:18:09;;;;;;;10.27;5.50;;;;;;;1.69;100.00;99993.91;5037589;28;20226;-73
2024/01/14 02:20:35;;;;;;;9.73;5.93;;;;;;;1.71;100.00;99991.81;5032683;28;20598;-73
2024/01/14 02:23:06;;;;;;;10.03;6.20;;;;;;;1.71;100.00;99978.03;5030703;28;20789;-73
2024/01/14 02:25:34;;;;;;;9.40;5.40;;;;;;;1.70;100.00;99979.84;5030929;28;20227;-73
2024/01/14 02:28:00;;;;;;;8.30;5.40;;;;;;;1.70;100.00;99977.25;5032095;28;20207;-73
2024/01/14 02:30:27;;;;;;;15.27;5.80;;;;;;;1.70;100.00;99987.66;5034069;28;20220;-73
2024/01/14 02:32:55;;;;;;;8.83;5.90;;;;;;;1.71;100.00;99980.63;5030814;28;20577;-73
2024/01/14 02:35:21;;;;;;;9.33;5.47;;;;;;;1.71;100.00;99983.22;5032880;28;20254;-73
2024/01/14 02:37:47;;;;;;;10.93;5.90;;;;;;;1.72;100.00;99982.19;5036495;28;20210;-73
2024/01/14 02:40:16;;;;;;;10.20;5.87;;;;;;;1.71;100.00;99985.84;5038413;28;20215;-73
2024/01/14 02:42:43;;;;;;;10.93;5.93;;;;;;;1.72;100.00;99987.38;5034907;28;20214;-73
2024/01/14 02:45:10;;;;;;;8.80;5.57;;;;;;;1.72;100.00;99982.94;5033000;28;20230;-73
2024/01/14 02:47:36;;;;;;;8.63;5.43;;;;;;;1.71;100.00;99975.44;5034482;28;20211;-74
2024/01/14 02:50:03;;;;;;;7.57;5.23;;;;;;;1.69;100.00;99967.91;5036008;28;20203;-73
2024/01/14 02:52:29;;;;;;;8.53;5.20;;;;;;;1.70;100.00;99969.44;5034110;28;20210;-74
2024/01/14 02:54:56;;;;;;;8.40;5.27;;;;;;;1.71;100.00;99975.44;5038064;28;20937;-73
2024/01/14 02:57:22;;;;;;;8.77;5.53;;;;;;;1.70;100.00;99963.44;5035617;28;20214;-73
2024/01/14 02:59:50;;;;;;;8.07;5.37;;;;;;;1.71;100.00;99970.97;5034742;28;20206;-73
2024/01/14 03:02:17;;;;;;;10.10;5.90;;;;;;;1.72;100.00;99971.75;5035579;28;20238;-73
2024/01/14 03:04:44;;;;;;;7.33;5.30;;;;;;;1.72;100.00;99953.53;5035288;28;20203;-73
2024/01/14 03:07:10;;;;;;;8.03;5.50;;;;;;;1.72;100.00;99958.75;5034905;28;20223;-73
2024/01/14 03:09:37;;;;;;;8.13;5.47;;;;;;;1.72;100.00;99943.91;5032481;28;20319;-73
2024/01/14 03:12:03;;;;;;;8.50;5.10;;;;;;;1.73;100.00;99955.09;5035173;28;20234;-74
2024/01/14 03:14:29;;;;;;;10.97;5.90;;;;;;;1.74;100.00;99952.22;5037337;28;20292;-74
2024/01/14 03:16:59;;;;;;;7.83;5.20;;;;;;;1.74;100.00;99961.84;5035027;28;20207;-74
2024/01/14 03:19:25;;;;;;;8.90;5.80;;;;;;;1.75;100.00;99960.78;5035571;28;20291;-74
2024/01/14 03:21:52;;;;;;;8.90;5.47;;;;;;;1.75;100.00;99969.38;5039898;28;20227;-73
2024/01/14 03:24:18;;;;;;;9.17;5.93;;;;;;;1.77;100.00;99949.03;5034929;28;20800;-73
2024/01/14 03:26:46;;;;;;;9.33;5.83;;;;;;;1.78;100.00;99960.22;5036468;28;20563;-73
2024/01/14 03:29:12;;;;;;;8.97;6.00;;;;;;;1.78;100.00;99948.00;5038493;28;20191;-74
2024/01/14 03:31:38;;;;;;;9.23;5.80;;;;;;;1.78;100.00;99957.63;5035624;28;20227;-73
2024/01/14 03:34:06;;;;;;;9.20;5.77;;;;;;;1.78;100.00;99963.59;5035997;28;20206;-73
2024/01/14 03:36:32;;;;;;;10.30;6.00;;;;;;;1.78;100.00;99953.19;5035662;28;20547;-74
2024/01/14 03:38:59;;;;;;;7.87;5.70;;;;;;;1.77;100.00;99941.22;5033358;28;20206;-73
2024/01/14 03:41:25;;;;;;;8.50;6.43;;;;;;;1.77;100.00;99938.63;5036416;28;20228;-73
2024/01/14 03:43:52;;;;;;;10.70;5.67;;;;;;;1.76;100.00;99952.69;5036233;28;20206;-73
2024/01/14 03:46:18;;;;;;;9.10;5.20;;;;;;;1.77;100.00;99949.03;5035327;28;20211;-73
2024/01/14 03:48:44;;;;;;;8.27;5.63;;;;;;;1.77;100.00;99949.03;5030125;28;22330;-74
2024/01/14 03:51:12;;;;;;;7.17;5.20;;;;;;;1.78;100.00;99948.00;5035427;28;20238;-73
2024/01/14 03:53:38;;;;;;;7.97;5.50;;;;;;;1.78;100.00;99936.81;5034871;28;20215;-73
2024/01/14 03:56:05;;;;;;;8.23;5.07;;;;;;;1.77;100.00;99936.00;5033953;28;20191;-73
2024/01/14 03:58:31;;;;;;;10.07;5.63;;;;;;;1.77;100.00;99930.81;5032760;28;20391;-75
2024/01/14 04:00:58;;;;;;;7.97;5.23;;;;;;;1.74;100.00;99923.59;5037086;28;20273;-74
2024/01/14 04:03:24;;;;;;;8.97;4.97;;;;;;;1.74;100.00;99930.59;5033155;28;20206;-74
2024/01/14 04:05:50;;;;;;;7.07;4.80;;;;;;;1.73;100.00;99932.44;5034244;28;20562;-73
2024/01/14 04:08:18;;;;;;;8.07;4.93;;;;;;;1.74;100.00;99943.63;5033617;28;20203;-73
2024/01/14 04:10:44;;;;;;;7.27;4.17;;;;;;;1.74;100.00;99941.00;5032409;28;20547;-74
2024/01/14 04:13:11;;;;;;;7.30;4.77;;;;;;;1.73;100.00;99931.66;5036378;28;20200;-74
2024/01/14 04:15:37;;;;;;;7.03;4.13;;;;;;;1.72;100.00;99920.47;5032443;28;20218;-74
2024/01/14 04:18:04;;;;;;;8.57;4.47;;;;;;;1.71;100.00;99918.94;5036568;28;20214;-74
2024/01/14 04:20:30;;;;;;;6.07;4.53;;;;;;;1.71;100.00;99918.19;5033925;28;20227;-74
2024/01/14 04:22:57;;;;;;;7.60;3.93;;;;;;;1.69;100.00;99910.66;5031138;28;20208;-73
2024/01/14 04:25:24;;;;;;;6.97;4.27;;;;;;;1.66;100.00;99907.84;5030468;28;20220;-73
2024/01/14 04:27:51;;;;;;;5.70;3.77;;;;;;;1.64;100.00;99917.75;5034141;28;20229;-74
2024/01/14 04:30:18;;;;;;;6.03;3.80;;;;;;;1.62;100.00;99907.59;5033836;28;20227;-74
2024/01/14 04:32:44;;;;;;;6.63;3.83;;;;;;;1.60;100.00;99919.34;5036796;28;20198;-74
2024/01/14 04:35:10;;;;;;;5.33;3.80;;;;;;;1.61;100.00;99923.53;5036084;28;20214;-74
2024/01/14 04:37:37;;;;;;;5.43;3.50;;;;;;;1.59;100.00;99916.00;5039287;28;20195;-74
2024/01/14 04:40:04;;;;;;;5.33;3.73;;;;;;;1.57;100.00;99912.88;5040382;28;20214;-73
2024/01/14 04:42:31;;;;;;;6.23;3.47;;;;;;;1.57;100.00;99917.34;5039199;28;20204;-73
2024/01/14 04:44:57;;;;;;;5.27;3.50;;;;;;;1.58;100.00;99911.06;5036836;28;20214;-73
2024/01/14 04:47:24;;;;;;;5.80;3.23;;;;;;;1.54;100.00;99913.47;5036345;28;20729;-73
2024/01/14 04:49:50;;;;;;;6.37;3.33;;;;;;;1.52;100.00;99910.34;5037869;28;20210;-74
2024/01/14 04:52:16;;;;;;;4.87;3.17;;;;;;;1.53;100.00;99916.34;5038102;28;20242;-73
2024/01/14 04:54:43;;;;;;;5.17;3.50;;;;;;;1.52;100.00;99914.81;5040694;28;20302;-74
2024/01/14 04:57:09;;;;;;;5.63;3.43;;;;;;;1.50;100.00;99919.53;5039897;28;20221;-73
2024/01/14 04:59:37;;;;;;;4.73;3.13;;;;;;;1.51;100.00;99928.88;5040090;28;20203;-73
2024/01/14 05:02:04;;;;;;;5.93;2.77;;;;;;;1.50;100.00;99916.94;5034688;28;20220;-74
2024/01/14 05:04:30;;;;;;;4.83;3.50;;;;;;;1.49;100.00;99910.94;5039237;28;20207;-74
2024/01/14 05:06:57;;;;;;;5.27;3.20;;;;;;;1.49;100.00;99920.56;5036963;28;20332;-73
2024/01/14 05:09:23;;;;;;;5.60;2.93;;;;;;;1.50;100.00;99919.53;5035271;28;20214;-73
2024/01/14 05:11:49;;;;;;;5.90;3.40;;;;;;;1.49;100.00;99921.34;5039256;28;20301;-74
2024/01/14 05:14:16;;;;;;;5.80;3.13;;;;;;;1.51;100.00;99921.06;5041647;28;20208;-73
2024/01/14 05:16:44;;;;;;;6.33;3.43;;;;;;;1.50;100.00;99920.28;5039180;28;20208;-74
2024/01/14 05:19:10;;;;;;;5.33;3.40;;;;;;;1.51;100.00;99918.47;5037784;28;20213;-73
2024/01/14 05:21:36;;;;;;;6.47;3.60;;;;;;;1.50;100.00;99925.47;5037303;28;20832;-73
2024/01/14 05:24:02;;;;;;;5.23;3.23;;;;;;;1.52;100.00;99920.75;5037425;28;20209;-74
2024/01/14 05:26:29;;;;;;;6.23;3.70;;;;;;;1.51;100.00;99929.63;5037383;28;20776;-73
2024/01/14 05:28:59;;;;;;;4.50;3.13;;;;;;;1.48;100.00;99921.63;5039259;28;20292;-73
2024/01/14 05:31:25;;;;;;;6.97;4.03;;;;;;;1.47;100.00;99917.47;5041374;28;20246;-73
2024/01/14 05:33:54;;;;;;;5.33;3.40;;;;;;;1.45;100.00;99917.75;5038009;28;20215;-73
2024/01/14 05:36:20;;;;;;;6.37;3.57;;;;;;;1.40;100.00;99930.06;5037947;28;20689;-73
2024/01/14 05:38:46;;;;;;;5.33;3.50;;;;;;;1.37;100.00;99921.00;5040218;28;20207;-73
2024/01/14 05:41:13;;;;;;;7.23;3.93;;;;;;;1.36;100.00;99932.44;5037403;28;20234;-73
2024/01/14 05:43:39;;;;;;;5.33;3.80;;;;;;;1.37;100.00;99935.81;5038203;28;20269;-73
2024/01/14 05:46:06;;;;;;;8.23;3.53;;;;;;;1.36;100.00;99929.81;5035999;28;20207;-73
2024/01/14 05:48:32;;;;;;;5.50;3.40;;;;;;;1.36;100.00;99935.03;5038038;28;20879;-74
2024/01/14 05:51:00;;;;;;;6.43;3.60;;;;;;;1.38;100.00;99929.56;5034630;28;20223;-73
2024/01/14 05:53:27;;;;;;;7.17;3.60;;;;;;;1.39;100.00;99924.06;5037129;28;20200;-74
2024/01/14 05:55:54;;;;;;;6.50;3.30;;;;;;;1.40;100.00;99925.63;5037306;28;20258;-73
2024/01/14 05:58:20;;;;;;;6.50;3.70;;;;;;;1.42;100.00;99933.16;5039323;28;20561;-73
2024/01/14 06:00:47;;;;;;;4.63;3.10;;;;;;;1.43;100.00;99921.69;5036972;28;20254;-74
2024/01/14 06:03:13;;;;;;;6.67;3.53;;;;;;;1.43;100.00;99926.88;5040483;28;20243;-74
2024/01/14 06:05:40;;;;;;;6.30;3.57;;;;;;;1.45;100.00;99925.56;5037718;28;20210;-73
2024/01/14 06:08:07;;;;;;;5.87;3.90;;;;;;;1.47;100.00;99936.47;5039012;28;20211;-73
2024/01/14 06:10:34;;;;;;;6.63;4.47;;;;;;;1.49;100.00;99931.75;5035788;28;20242;-74
2024/01/14 06:13:00;;;;;;;5.60;3.33;;;;;;;1.50;100.00;99924.72;5034316;28;20203;-74
2024/01/14 06:15:26;;;;;;;4.93;3.20;;;;;;;1.52;100.00;99931.16;5038521;28;20200;-73
2024/01/14 06:17:53;;;;;;;6.53;3.10;;;;;;;1.53;100.00;99930.13;5034451;28;20204;-73
2024/01/14 06:20:19;;;;;;;4.70;2.77;;;;;;;1.55;100.00;99935.81;5036344;28;20854;-73
2024/01/14 06:22:45;;;;;;;7.07;2.73;;;;;;;1.57;100.00;99935.53;5035254;28;20579;-73
2024/01/14 06:25:13;;;;;;;5.03;3.07;;;;;;;1.59;100.00;99934.22;5047520;28;20925;-73
2024/01/14 06:27:39;;;;;;;8.00;2.87;;;;;;;1.59;100.00;99938.63;5035352;28;20479;-74
2024/01/14 06:30:07;;;;;;;5.00;2.90;;;;;;;1.61;100.00;99932.09;5038150;28;20678;-73
2024/01/14 06:32:34;;;;;;;6.87;3.33;;;;;;;1.62;100.00;99936.22;5039383;28;20199;-73
2024/01/14 06:35:01;;;;;;;5.03;2.50;;;;;;;1.63;100.00;99937.00;5036274;28;20195;-73
2024/01/14 06:37:27;;;;;;;7.10;3.10;;;;;;;1.65;100.00;99942.69;5036821;28;20224;-74
2024/01/14 06:39:53;;;;;;;4.60;2.63;;;;;;;1.66;100.00;99937.22;5035547;28;20214;-74
2024/01/14 06:42:21;;;;;;;3.17;2.57;;;;;;;1.66;100.00;99932.00;5038139;28;20252;-73
2024/01/14 06:44:47;;;;;;;5.57;3.37;;;;;;;1.67;100.00;99933.56;5035078;28;20243;-74
2024/01/14 06:47:14;;;;;;;4.60;2.73;;;;;;;1.68;100.00;99931.75;5036068;28;20220;-73
2024/01/14 06:49:40;;;;;;;4.77;3.20;;;;;;;1.68;100.00;99921.34;5038980;28;20221;-74
2024/01/14 06:52:06;;;;;;;7.77;3.30;;;;;;;1.67;100.00;99927.59;5033964;28;20255;-73
2024/01/14 06:54:33;;;;;;;4.67;2.97;;;;;;;1.67;100.00;99925.00;5037668;28;20217;-73
2024/01/14 06:56:59;;;;;;;7.90;3.90;;;;;;;1.66;100.00;99916.41;5036891;28;20703;-73
2024/01/14 06:59:27;;;;;;;4.40;3.30;;;;;;;1.66;100.00;99921.59;5035450;28;20205;-74
2024/01/14 07:01:53;;;;;;;4.50;3.60;;;;;;;1.64;100.00;99923.72;5033599;28;20231;-74
2024/01/14 07:04:19;;;;;;;5.93;3.30;;;;;;;1.65;100.00;99921.88;5036650;28;20312;-74
2024/01/14 07:06:46;;;;;;;6.83;3.43;;;;;;;1.64;100.00;99926.34;5038163;28;20207;-73
2024/01/14 07:09:12;;;;;;;5.93;4.30;;;;;;;1.64;100.00;99920.34;5034904;28;20203;-73
2024/01/14 07:11:39;;;;;;;6.27;3.53;;;;;;;1.65;100.00;99924.47;5035517;28;20219;-73
2024/01/14 07:14:05;;;;;;;5.53;3.80;;;;;;;1.64;100.00;99922.94;5034553;28;20692;-73
2024/01/14 07:16:33;;;;;;;6.17;3.50;;;;;;;1.63;100.00;99916.97;5037743;28;20237;-73
2024/01/14 07:18:59;;;;;;;5.70;3.37;;;;;;;1.63;100.00;99924.00;5033485;28;20199;-73
2024/01/14 07:21:26;;;;;;;4.80;3.73;;;;;;;1.63;100.00;99924.78;5033839;28;20992;-73
2024/01/14 07:23:52;;;;;;;4.93;3.43;;;;;;;1.63;100.00;99930.00;5034165;28;20207;-74
2024/01/14 07:26:19;;;;;;;6.80;3.03;;;;;;;1.64;100.00;99928.94;5036015;28;20223;-73
2024/01/14 07:28:46;;;;;;;6.47;3.40;;;;;;;1.65;100.00;99933.06;5035172;28;20223;-73
2024/01/14 07:31:16;;;;;;;8.00;3.30;;;;;;;1.67;100.00;99938.00;5035352;28;20223;-74
2024/01/14 07:33:44;;;;;;;7.33;3.70;;;;;;;1.67;100.00;99938.00;5036349;28;20205;-73
2024/01/14 07:36:10;;;;;;;5.17;3.03;;;;;;;1.68;100.00;99942.16;5037062;28;20203;-73
2024/01/14 07:38:36;;;;;;;9.27;3.60;;;;;;;1.68;100.00;99932.53;5037589;28;20199;-73
2024/01/14 07:41:05;;;;;;;7.43;3.60;;;;;;;1.69;100.00;99939.28;5033446;28;20227;-73
2024/01/14 07:43:31;;;;;;;6.83;3.40;;;;;;;1.69;100.00;99931.47;5038419;28;20290;-73
2024/01/14 07:45:57;;;;;;;9.27;3.80;;;;;;;1.70;100.00;99940.81;5034127;28;20989;-74
2024/01/14 07:48:26;;;;;;;7.53;4.03;;;;;;;1.71;100.00;99931.19;5038227;28;20222;-74
2024/01/14 07:50:54;;;;;;;6.37;3.97;;;;;;;1.71;100.00;99934.53;5031981;28;20238;-74
2024/01/14 07:53:20;;;;;;;7.90;4.17;;;;;;;1.70;100.00;99943.41;5036096;28;20213;-74
2024/01/14 07:55:46;;;;;;;6.17;3.53;;;;;;;1.70;100.00;99940.81;5033195;28;20203;-74
2024/01/14 07:58:13;;;;;;;6.40;3.90;;;;;;;1.72;100.00;99930.88;5038048;28;20199;-73
2024/01/14 08:00:39;;;;;;;7.40;4.10;;;;;;;1.74;100.00;99926.19;5031788;28;20223;-74
2024/01/14 08:03:05;;;;;;;10.90;4.40;;;;;;;1.76;100.00;99929.28;5035211;28;20207;-74
2024/01/14 08:05:32;;;;;;;6.47;4.23;;;;;;;1.77;100.00;99940.47;5034961;28;20211;-73
2024/01/14 08:07:59;;;;;;;7.70;3.97;;;;;;;1.80;100.00;99937.28;5035886;28;20219;-73
2024/01/14 08:10:26;;;;;;;6.00;4.00;;;;;;;1.80;100.00;99940.66;5034058;28;20227;-73
2024/01/14 08:12:52;;;;;;;6.57;4.30;;;;;;;1.82;100.00;99948.19;5036339;28;20546;-73
2024/01/14 08:15:18;;;;;;;7.63;4.60;;;;;;;1.80;100.00;99947.69;5038436;28;20214;-74
2024/01/14 08:17:45;;;;;;;7.87;4.13;;;;;;;1.80;100.00;99953.69;5030046;28;20281;-73
2024/01/14 08:20:12;;;;;;;9.30;4.23;;;;;;;1.79;100.00;99951.34;5034568;28;20234;-74
2024/01/14 08:22:39;;;;;;;6.60;3.93;;;;;;;1.78;100.00;99955.81;5031731;28;20693;-74
2024/01/14 08:25:08;;;;;;;6.97;4.00;;;;;;;1.77;100.00;99943.06;5031154;28;20624;-74
2024/01/14 08:27:35;;;;;;;6.27;3.90;;;;;;;1.74;100.00;99949.59;5033967;28;20312;-73
2024/01/14 08:30:01;;;;;;;7.97;3.53;;;;;;;1.70;100.00;99945.22;5034095;28;20218;-73
2024/01/14 08:32:29;;;;;;;5.47;3.57;;;;;;;1.67;100.00;99945.81;5030158;28;20216;-74
2024/01/14 08:34:56;;;;;;;5.73;3.63;;;;;;;1.65;100.00;99950.50;5035003;28;20204;-73
2024/01/14 08:37:23;;;;;;;9.47;6.43;;;;;;;1.62;100.00;99951.84;5037078;28;20222;-74
2024/01/14 08:39:50;;;;;;;10.27;7.30;;;;;;;1.63;100.00;99958.63;5028163;28;20214;-73
2024/01/14 08:42:18;;;;;;;9.50;5.33;;;;;;;1.65;100.00;99956.50;5031425;28;20737;-73
2024/01/14 08:44:44;;;;;;;6.17;4.97;;;;;;;1.65;100.00;99953.09;5030307;28;20206;-74
2024/01/14 08:47:11;;;;;;;7.43;5.37;;;;;;;1.68;100.00;99960.38;5033017;28;20206;-74
2024/01/14 08:49:37;;;;;;;9.20;4.60;;;;;;;1.70;100.00;99953.03;5036506;28;20212;-74
2024/01/14 08:52:04;;;;;;;5.57;4.07;;;;;;;1.73;100.00;99957.69;5031717;28;20238;-73
2024/01/14 08:54:31;;;;;;;6.07;4.53;;;;;;;1.75;100.00;99955.56;5033881;28;20581;-73
2024/01/14 08:56:57;;;;;;;7.27;4.10;;;;;;;1.79;100.00;99964.38;5030219;28;20204;-73
2024/01/14 08:59:25;;;;;;;4.97;3.63;;;;;;;1.80;100.00;99955.50;5035581;28;20203;-73
2024/01/14 09:01:52;;;;;;;5.70;3.70;;;;;;;1.82;100.00;99969.03;5029742;28;20235;-75
2024/01/14 09:04:19;;;;;;;4.70;3.63;;;;;;;1.84;100.00;99966.91;5030057;28;20801;-74
2024/01/14 09:06:46;;;;;;;4.40;3.50;;;;;;;1.86;100.00;99968.16;5032175;28;20249;-74
2024/01/14 09:09:12;;;;;;;11.17;6.63;;;;;;;1.89;100.00;99972.03;5034127;28;20799;-74
2024/01/14 09:11:39;;;;;;;6.47;4.20;;;;;;;1.89;100.00;99966.81;5032160;28;20232;-74
2024/01/14 09:14:05;;;;;;;11.67;7.13;;;;;;;1.92;100.00;99974.09;5033971;28;20211;-74
2024/01/14 09:16:33;;;;;;;8.83;6.10;;;;;;;1.95;100.00;99976.09;5039482;28;20215;-74
2024/01/14 09:18:59;;;;;;;10.07;5.20;;;;;;;1.96;100.00;99973.22;5033400;28;20199;-74
2024/01/14 09:21:26;;;;;;;6.63;4.87;;;;;;;1.98;100.00;99980.75;5036088;28;20322;-74
2024/01/14 09:23:52;;;;;;;9.77;5.77;;;;;;;1.99;100.00;99972.66;5036845;28;20291;-74
2024/01/14 09:26:18;;;;;;;9.00;6.80;;;;;;;2.00;100.00;99976.81;5037331;28;20216;-74
2024/01/14 09:28:45;;;;;;;9.97;5.80;;;;;;;2.04;100.00;99972.59;5034746;28;20215;-74
2024/01/14 09:31:12;;;;;;;15.03;9.20;;;;;;;2.06;100.00;99969.69;5036428;28;20234;-74
2024/01/14 09:33:40;;;;;;;9.67;7.47;;;;;;;2.08;100.00;99980.59;5035957;28;20211;-74
2024/01/14 09:36:08;;;;;;;6.53;4.90;;;;;;;2.14;100.00;99974.25;5038440;28;20203;-74
2024/01/14 09:38:35;;;;;;;32.27;11.63;;;;;;;2.21;100.00;99975.44;5034475;28;20293;-74
2024/01/14 09:41:10;;;;;;;9.80;4.70;;;;;;;2.27;100.00;99969.09;5033256;28;20235;-73
2024/01/14 09:43:39;;;;;;;5.33;3.97;;;;;;;2.35;100.00;99972.88;5036913;28;20225;-74
2024/01/14 09:46:05;;;;;;;19.97;8.97;;;;;;;2.40;100.00;99973.56;5033352;28;20226;-74
2024/01/14 09:48:32;;;;;;;11.70;5.77;;;;;;;2.46;100.00;99969.03;5035289;28;20227;-74
2024/01/14 09:51:03;;;;;;;17.47;10.50;;;;;;;2.51;100.00;99968.94;5035197;28;20720;-74
2024/01/14 09:53:30;;;;;;;14.57;10.60;;;;;;;2.59;100.00;99968.31;5034724;28;20698;-74
2024/01/14 09:56:00;;;;;;;5.50;4.10;;;;;;;2.62;100.00;99971.09;5034777;28;20261;-74
2024/01/14 09:58:27;;;;;;;11.70;6.30;;;;;;;2.65;100.00;99967.91;5035167;28;20415;-74
2024/01/14 10:00:56;;;;;;;9.00;4.03;;;;;;;2.66;100.00;99971.28;5030699;28;20223;-74
2024/01/14 10:03:22;;;;;;;5.77;4.07;;;;;;;2.69;100.00;99965.53;5035023;28;20231;-74
2024/01/14 10:05:50;;;;;;;7.53;3.53;;;;;;;2.71;100.00;99964.16;5034165;28;20214;-74
2024/01/14 10:08:18;;;;;;;10.07;4.13;;;;;;;2.71;100.00;99958.94;5034410;28;20215;-74
2024/01/14 10:10:52;;;;;;;6.07;3.93;;;;;;;2.74;100.00;99953.16;5036032;28;20227;-74
2024/01/14 10:13:20;;;;;;;6.90;4.27;;;;;;;2.73;100.00;99956.81;5026917;28;20266;-74
2024/01/14 10:15:47;;;;;;;8.23;5.33;;;;;;;2.74;100.00;99954.97;5034592;28;20204;-74
2024/01/14 10:18:14;;;;;;;5.57;3.50;;;;;;;2.73;100.00;99956.81;5031206;28;20645;-75
2024/01/14 10:20:40;;;;;;;7.23;4.93;;;;;;;2.74;100.00;99949.75;5034604;28;20238;-74
2024/01/14 10:23:07;;;;;;;6.77;4.57;;;;;;;2.73;100.00;99950.81;5033955;28;20203;-74
2024/01/14 10:25:34;;;;;;;6.80;4.30;;;;;;;2.76;100.00;99945.81;5035984;28;20200;-74
2024/01/14 10:28:03;;;;;;;5.07;3.80;;;;;;;2.78;100.00;99933.28;5031035;28;20207;-74
2024/01/14 10:30:30;;;;;;;8.17;4.13;;;;;;;2.80;100.00;99938.19;5032895;28;20224;-74
2024/01/14 10:32:56;;;;;;;10.53;4.50;;;;;;;2.86;100.00;99934.44;5034603;28;20210;-74
2024/01/14 10:35:25;;;;;;;6.90;4.20;;;;;;;2.87;100.00;99928.94;5027803;28;20207;-74
2024/01/14 10:37:51;;;;;;;7.60;4.07;;;;;;;2.90;100.00;99927.59;5032269;28;20211;-74
2024/01/14 10:40:18;;;;;;;6.43;4.50;;;;;;;2.93;100.00;99927.78;5032533;28;20657;-74
2024/01/14 10:42:47;;;;;;;7.57;4.27;;;;;;;2.99;100.00;99918.78;5032933;28;20231;-74
2024/01/14 10:45:13;;;;;;;10.83;4.47;;;;;;;3.02;100.00;99909.59;5034653;28;20208;-74
2024/01/14 10:47:47;;;;;;;6.37;4.50;;;;;;;3.10;100.00;99916.72;5036880;28;20586;-74
2024/01/14 10:50:17;;;;;;;10.27;4.93;;;;;;;3.12;100.00;99912.75;5033504;28;20210;-74
2024/01/14 10:52:49;;;;;;;8.20;5.23;;;;;;;3.15;100.00;99906.97;5032681;28;20203;-74
2024/01/14 10:55:28;;;;;;;6.67;4.93;;;;;;;3.18;100.00;99910.84;5032049;28;20215;-73
2024/01/14 10:57:57;;;;;;;5.90;4.03;;;;;;;3.22;100.00;99909.19;5035303;28;20678;-74
2024/01/14 11:00:24;;;;;;;6.63;4.40;;;;;;;3.25;100.00;99898.16;5031729;28;20285;-73
2024/01/14 11:02:51;;;;;;;5.97;4.07;;;;;;;3.27;100.00;99899.41;5036410;28;20209;-73
2024/01/14 11:05:19;;;;;;;5.93;3.93;;;;;;;3.28;100.00;99898.38;5033088;28;20218;-74
2024/01/14 11:07:45;;;;;;;6.67;3.87;;;;;;;3.27;100.00;99896.03;5037361;28;20214;-73
2024/01/14 11:10:12;;;;;;;4.97;3.80;;;;;;;3.27;100.00;99893.44;5030165;28;20204;-74
2024/01/14 11:12:44;;;;;;;6.80;3.80;;;;;;;3.26;100.00;99881.47;5038491;28;20210;-73
2024/01/14 11:15:17;;;;;;;6.13;3.40;;;;;;;3.22;100.00;99889.06;5032290;28;20196;-73
2024/01/14 11:17:53;;;;;;;5.00;3.33;;;;;;;3.16;100.00;99884.28;5036861;28;20214;-73
2024/01/14 11:20:24;;;;;;;7.27;4.57;;;;;;;3.14;100.00;99881.97;5030151;28;20733;-73
2024/01/14 11:22:51;;;;;;;6.70;4.37;;;;;;;3.11;100.00;99879.91;5032387;28;20207;-74
2024/01/14 11:25:22;;;;;;;6.70;4.60;;;;;;;3.09;100.00;99886.50;5034991;28;20278;-74
2024/01/14 11:27:49;;;;;;;8.73;5.90;;;;;;;3.07;100.00;99878.97;5038531;28;20293;-73